Rawlins, WY (82301)

11:46 PM MST on February 21, 2017 (GMT -0700)
Rawlins Municipal | | Change Station
Active Advisory: Winter Storm Watch

Elev 6814 ft 41.81 °N, 107.20 °W | Updated 56 minutes ago

Light Snow
Light Snow
32 °F
Feels Like 19 °F
N
24
Wind Variable Wind from West
Gusts 32 mph

Today
High -- | Low -- °F
--% Chance of Precip.
Yesterday
High -- | Low -- °F
Precip. -- in
Pressure 29.90 in
Visibility 6.0 miles
Clouds Mostly Cloudy 3000 ft
Overcast 4900 ft
Windchill 19 °F
Dew Point 27 °F
Humidity 82%
Rainfall 0.12 in
Snow Depth Not available.
6:55 AM 5:50 PM
Waning Crescent, 19% visible
METAR KRWL 220550Z AUTO 28021G28KT 6SM -SN BKN030 OVC049 00/M03 A2996 RMK AO2 PK WND 29028/0548 SLP124 P0004 60012 T00001028 10089 20000 TSNO $
Pressure 29.90 in
Visibility 6.0 miles
Clouds Mostly Cloudy 3000 ft
Overcast 4900 ft
Windchill 19 °F
Dew Point 27 °F
Humidity 82%
Rainfall 0.12 in
Snow Depth Not available.
6:55 AM 5:50 PM
Waning Crescent, 19% visible
METAR KRWL 220550Z AUTO 28021G28KT 6SM -SN BKN030 OVC049 00/M03 A2996 RMK AO2 PK WND 29028/0548 SLP124 P0004 60012 T00001028 10089 20000 TSNO $

Get Your Daily Forecast Email!

Thanks for signing up!

Be on the lookout for a verification email in your inbox.

You'll start receiving the daily forecast at 8 AM.

×

10-Day Weather Forecast

Almanac

Astronomy

Feb. 21, 2017 Rise Set
Actual Time
Civil Twilight
Nautical Twilight
Astronomical Twilight
Moon
Length of Visible Light
Length of Day
Tomorrow will be .
, % of the Moon is Illuminated

Today's Extremes

State Highs State Lows

Community

WunderPhotos

Upload Photos

1,962,540 photos uploaded!

WunderBlog® & News

Nearby

Air Quality

  Air Quality AQ Index Pollutant
Not available.

Snow Depth

Station Depth Elevation

Earthquake Activity

City Distance Mag. Time & Date
Minimum magnitude displayed is 2.5.

Coastal Water Temperatures

Place Temperature

Stations

Nearby Weather Stations

Station Location Temp. Windchill Dew Point Humidity Wind Precip. Elev Updated Type
                   

Watches & Warnings

Winter Storm Watch
Issued: 7:53 PM MST Feb. 21, 2017 – National Weather Service

... Winter Storm Watch remains in effect from Wednesday evening
through Friday morning...

* timing... snow will begin Wednesday night and continue through
Thursday night.

* Total snow accumulations... 6 to 12 inches.

* Winds/visibility... east winds will become north to northeast
by Thursday afternoon into the evening. Gusts to 30 to 35 mph
will be possible. Visibilities will fall below one half mile
at times in falling and patchy blowing snow.

* Impacts... mainly to travel. Hazardous travel conditions will
likely occur due to slick snowpacked roads and low
visibilities.

Precautionary/preparedness actions...

A Winter Storm Watch means there is a potential for significant
snow accumulations that may impact travel. Continue to monitor
the latest forecasts.